logo
Search for airport 
image banner adimage banner adimage banner ad
image banner ad

MRSQ - Sarapiqui

Located in Sarapiqui, Costa Rica

ICAO - MRSQ, IATA -

Data provided by Airmate  

General information

Coordinates: N10°28'16" W83°54'26"
Elevation is 164 feet MSL.
Magnetic variation is -3° East
View others Airports in Heredia

Operational data

Special qualification required
Current time UTC:
Current local time:
Weather at : MROC - Juan Santamaria Intl ( 62 km )
METAR: MROC 231700Z 09013KT CAVOK 26/18 A3002 NOSIG
TAF: MROC 231100Z 2312/2412 07006KT 9999 FEW040 TX29/2318Z TN19/2411Z BECMG 2315/2317 25006KT TEMPO 2320/2324 5000 TSRA SCT010CB TEMPO 2400/2405 3000 BR BKN010 BECMG 2405/2407 08007KT
View NOTAMs / SUP AIP / TFR affecting this airport [VIEW]
Communications frequencies: [VIEW]

Runways:

RWY identifierQFULength (ft)Width (ft)SurfaceLDA (ft)
0554°302726ASPH
23234°302726ASPH

Airport contact information

Address: Sarapiqui Costa Rica

Satellite view of MRSQ